Time;durP1;ratioP1;P1;durP2;ratioP2;P2;SDS_P1;SDS_P2;PMS_P1;PMS_P2;Temp;Humidity;BMP_temperature;BMP_pressure;BME280_temperature;BME280_humidity;BME280_pressure;Samples;Min_cycle;Max_cycle;Signal;HPM_P1;HPM_P2
2022/11/06 00:00:46;;;;;;;2.47;1.80;;;4.50;99.90;5.20;96902.00;;;;5091301;28;20229;-69
2022/11/06 00:03:36;;;;;;;2.43;1.90;;;4.50;99.90;5.30;96905.00;;;;5078801;28;20257;-69
2022/11/06 00:09:34;;;;;;;1.77;1.67;;;4.50;99.90;5.50;96903.00;;;;5088916;28;20187;-69
2022/11/06 00:12:23;;;;;;;1.60;1.30;;;4.60;99.90;5.40;96905.00;;;;5089805;28;20195;-69
2022/11/06 00:15:12;;;;;;;3.10;2.10;;;4.60;99.90;5.40;96898.00;;;;5090957;28;20280;-69
2022/11/06 00:18:00;;;;;;;2.30;2.10;;;4.60;99.90;5.50;96901.00;;;;5090278;28;20272;-69
2022/11/06 00:20:49;;;;;;;3.50;1.47;;;4.50;99.90;5.20;96902.00;;;;5087763;28;20245;-68
2022/11/06 00:23:38;;;;;;;1.90;1.50;;;4.50;99.90;5.00;96897.00;;;;5083651;28;20202;-69
2022/11/06 00:26:30;;;;;;;1.43;1.27;;;4.40;99.90;5.30;96899.00;;;;5090661;28;20262;-69
2022/11/06 00:29:19;;;;;;;2.03;1.53;;;4.40;99.90;5.20;96909.00;;;;5090970;28;20664;-69
2022/11/06 00:32:07;;;;;;;1.40;1.30;;;4.40;99.90;5.00;96905.00;;;;5086957;28;20205;-69
2022/11/06 00:34:56;;;;;;;1.57;1.47;;;4.40;99.90;4.90;96902.00;;;;5089328;28;20280;-69
2022/11/06 00:37:45;;;;;;;2.03;1.63;;;4.30;99.90;5.10;96904.00;;;;5082328;28;20275;-69
2022/11/06 00:40:34;;;;;;;1.57;1.47;;;4.20;99.90;5.20;96908.00;;;;5088492;28;20253;-69
2022/11/06 00:43:24;;;;;;;1.37;1.23;;;4.20;99.90;5.10;96912.00;;;;5090179;28;20641;-69
2022/11/06 00:46:14;;;;;;;1.27;1.17;;;4.20;99.90;5.10;96914.00;;;;5084827;28;20223;-69
2022/11/06 00:49:03;;;;;;;1.40;1.00;;;4.20;99.90;5.20;96918.00;;;;5077859;28;20446;-69
2022/11/06 00:51:51;;;;;;;1.50;1.27;;;4.30;99.90;5.20;96913.00;;;;5089886;28;21062;-69
2022/11/06 00:54:40;;;;;;;2.10;1.70;;;4.30;99.90;5.30;96922.00;;;;5091395;28;20274;-69
2022/11/06 00:57:29;;;;;;;4.03;1.10;;;4.30;99.90;5.50;96910.00;;;;5090523;28;20223;-68
2022/11/06 01:00:19;;;;;;;0.83;0.83;;;4.30;99.90;5.20;96916.00;;;;5071862;28;20252;-69
2022/11/06 01:03:08;;;;;;;2.03;1.53;;;4.30;99.90;5.00;96908.00;;;;5089486;28;20199;-69
2022/11/06 01:06:05;;;;;;;5.13;2.27;;;4.30;99.90;4.50;96912.00;;;;5083472;28;20235;-68
2022/11/06 01:08:56;;;;;;;3.43;2.17;;;4.20;99.90;4.60;96910.00;;;;5089447;28;20694;-68
2022/11/06 01:11:53;;;;;;;4.50;2.87;;;4.10;99.90;4.60;96915.00;;;;5086291;28;20276;-68
2022/11/06 01:15:02;;;;;;;3.43;1.70;;;4.00;99.90;5.00;96922.00;;;;5090343;28;20212;-68
2022/11/06 01:17:52;;;;;;;1.43;1.33;;;4.00;99.90;5.20;96914.00;;;;5088518;28;20256;-69
2022/11/06 01:20:41;;;;;;;2.77;2.00;;;4.10;99.90;5.20;96917.00;;;;5079957;28;20195;-68
2022/11/06 01:23:29;;;;;;;1.97;1.70;;;4.20;99.90;4.90;96901.00;;;;5090142;28;20219;-68
2022/11/06 01:26:18;;;;;;;2.67;1.93;;;4.20;99.90;4.80;96908.00;;;;5075115;28;20511;-68
2022/11/06 01:29:18;;;;;;;1.93;1.73;;;4.20;99.90;4.30;96911.00;;;;5084062;28;20201;-68
2022/11/06 01:32:07;;;;;;;1.33;1.23;;;4.00;99.90;4.70;96907.00;;;;5069760;28;20532;-68
2022/11/06 01:34:57;;;;;;;2.23;1.50;;;4.00;99.90;4.90;96913.00;;;;5084922;28;20261;-69
2022/11/06 01:37:46;;;;;;;1.10;1.00;;;4.00;99.90;5.00;96910.00;;;;5081364;28;20588;-68
2022/11/06 01:40:41;;;;;;;3.77;1.73;;;4.00;99.90;4.70;96910.00;;;;5086527;28;20418;-69
2022/11/06 01:43:47;;;;;;;2.87;1.20;;;4.00;99.90;4.70;96917.00;;;;5090676;28;20671;-69
2022/11/06 01:46:36;;;;;;;1.30;1.00;;;4.00;99.90;4.50;96917.00;;;;5074623;28;20438;-69
2022/11/06 01:49:27;;;;;;;1.43;0.93;;;3.90;99.90;4.30;96916.00;;;;5087776;28;20453;-70
2022/11/06 01:52:19;;;;;;;0.90;0.90;;;3.80;99.90;4.60;96912.00;;;;5080709;28;20419;-68
2022/11/06 01:55:12;;;;;;;1.20;1.10;;;3.80;99.90;4.60;96912.00;;;;5080114;28;21389;-68
2022/11/06 01:58:03;;;;;;;2.40;1.47;;;3.80;99.90;4.80;96920.00;;;;5089819;28;20518;-68
2022/11/06 02:00:52;;;;;;;1.30;1.20;;;3.90;99.90;4.80;96920.00;;;;5084835;28;20448;-69
2022/11/06 02:03:51;;;;;;;3.67;1.97;;;3.90;99.90;4.50;96911.00;;;;5079470;28;20491;-69
2022/11/06 02:06:40;;;;;;;3.00;1.87;;;3.90;99.90;4.60;96916.00;;;;5086514;28;20456;-68
2022/11/06 02:09:32;;;;;;;4.00;1.67;;;3.90;99.90;5.00;96916.00;;;;5089520;28;20187;-68
2022/11/06 02:12:45;;;;;;;1.97;1.63;;;3.90;99.90;4.70;96908.00;;;;5078208;28;20928;-68
2022/11/06 02:15:45;;;;;;;1.23;1.17;;;4.00;99.90;4.30;96913.00;;;;5090047;28;20449;-68
2022/11/06 02:18:51;;;;;;;1.90;1.70;;;3.90;99.90;4.60;96903.00;;;;5081544;28;20254;-69
2022/11/06 02:22:08;;;;;;;1.80;1.70;;;3.90;99.90;4.70;96911.00;;;;5075584;28;20475;-68
2022/11/06 02:25:18;;;;;;;0.73;0.73;;;3.80;99.90;4.40;96908.00;;;;5086473;28;20470;-69
2022/11/06 02:28:15;;;;;;;1.60;1.50;;;3.80;99.90;4.80;96914.00;;;;5086338;28;20424;-68
2022/11/06 02:31:11;;;;;;;6.40;1.10;;;3.80;99.90;4.70;96923.00;;;;5070825;28;20203;-68
2022/11/06 02:34:04;;;;;;;1.43;1.27;;;3.80;99.90;4.70;96932.00;;;;5087972;28;20198;-69
2022/11/06 02:37:00;;;;;;;3.13;1.10;;;3.80;99.90;4.40;96921.00;;;;5079111;28;20539;-68
2022/11/06 02:39:51;;;;;;;1.57;1.00;;;3.80;99.90;4.40;96926.00;;;;5073319;28;20421;-68
2022/11/06 02:42:44;;;;;;;1.40;1.03;;;3.80;99.90;4.70;96931.00;;;;5091587;28;20422;-68
2022/11/06 02:45:40;;;;;;;5.23;1.10;;;3.70;99.90;4.90;96936.00;;;;5088114;28;20429;-68
2022/11/06 02:48:36;;;;;;;1.30;1.20;;;3.80;99.90;4.40;96928.00;;;;5074605;28;20329;-68
2022/11/06 02:51:30;;;;;;;1.53;1.33;;;3.90;99.90;4.10;96923.00;;;;5087384;28;20522;-69
2022/11/06 02:54:21;;;;;;;1.20;1.10;;;3.80;99.90;4.50;96923.00;;;;5087641;28;20430;-68
2022/11/06 02:57:14;;;;;;;1.03;0.70;;;3.70;99.90;4.20;96927.00;;;;5070220;28;20466;-68
2022/11/06 03:00:09;;;;;;;1.40;1.00;;;3.70;99.90;4.60;96938.00;;;;5075473;28;20807;-68
2022/11/06 03:03:06;;;;;;;1.43;1.33;;;3.70;99.90;4.50;96927.00;;;;5093300;28;20503;-68
2022/11/06 03:06:00;;;;;;;1.97;0.97;;;3.80;99.90;4.60;96927.00;;;;5085459;28;20461;-68
2022/11/06 03:08:54;;;;;;;0.77;0.63;;;3.80;99.90;4.20;96919.00;;;;5080761;28;20413;-69
2022/11/06 03:11:42;;;;;;;0.97;0.97;;;3.70;99.90;4.30;96923.00;;;;5075285;28;20438;-69
2022/11/06 03:14:37;;;;;;;1.07;1.07;;;3.70;99.90;4.40;96918.00;;;;5075156;28;20450;-68
2022/11/06 03:17:38;;;;;;;1.30;1.10;;;3.60;99.90;4.70;96936.00;;;;5074405;28;20411;-68
2022/11/06 03:20:36;;;;;;;1.40;1.30;;;3.80;99.90;4.50;96940.00;;;;5076308;28;20235;-68
2022/11/06 03:23:32;;;;;;;1.13;1.03;;;3.90;99.90;4.50;96937.00;;;;5093857;28;20779;-68
2022/11/06 03:26:28;;;;;;;1.73;1.20;;;3.80;99.90;4.60;96942.00;;;;5079029;28;20220;-68
2022/11/06 03:29:22;;;;;;;1.38;1.20;;;4.10;99.90;4.30;96942.00;;;;5086862;28;20934;-68
2022/11/06 03:32:19;;;;;;;1.70;1.30;;;3.90;99.90;4.60;96944.00;;;;5072866;28;20441;-68
2022/11/06 03:35:13;;;;;;;4.67;1.07;;;3.90;99.90;4.40;96939.00;;;;5086725;28;20207;-69
2022/11/06 03:38:08;;;;;;;1.40;1.30;;;4.00;99.90;4.20;96938.00;;;;5089695;28;20306;-68
2022/11/06 03:41:02;;;;;;;1.13;0.93;;;3.70;99.90;4.70;96954.00;;;;5081442;28;20573;-68
2022/11/06 03:43:54;;;;;;;2.43;1.30;;;3.80;99.90;4.90;96959.00;;;;5090501;28;20246;-69
2022/11/06 03:46:50;;;;;;;1.13;1.13;;;3.90;99.90;4.40;96944.00;;;;5089930;28;20229;-69
2022/11/06 03:49:43;;;;;;;1.20;1.10;;;3.80;99.90;4.40;96953.00;;;;5093107;28;20264;-69
2022/11/06 03:52:37;;;;;;;0.90;0.90;;;3.80;99.90;4.10;96965.00;;;;5094098;28;20260;-68
2022/11/06 03:55:32;;;;;;;1.00;0.93;;;3.70;99.90;4.60;96963.00;;;;5079623;28;20219;-68
2022/11/06 03:58:24;;;;;;;1.40;1.30;;;3.70;99.90;4.50;96964.00;;;;5094749;28;20639;-68
2022/11/06 04:01:16;;;;;;;1.53;1.40;;;3.80;99.90;4.10;96967.00;;;;5094654;28;20221;-68
2022/11/06 04:04:10;;;;;;;0.90;0.90;;;3.80;99.90;3.90;96960.00;;;;5084732;28;20211;-69
2022/11/06 04:07:03;;;;;;;1.13;1.03;;;3.60;99.90;4.10;96958.00;;;;5088996;28;20218;-68
2022/11/06 04:16:13;;;;;;;0.93;0.93;;;3.60;99.90;4.40;96975.00;;;;5086707;28;20219;-69
2022/11/06 04:19:02;;;;;;;0.90;0.90;;;3.50;99.90;4.00;96966.00;;;;5091659;28;20527;-68
2022/11/06 04:22:18;;;;;;;0.60;0.60;;;3.60;99.90;3.90;96971.00;;;;5090650;28;20452;-69
2022/11/06 04:28:39;;;;;;;0.63;0.63;;;3.50;99.90;4.00;96959.00;;;;5080611;28;20429;-68
2022/11/06 04:31:37;;;;;;;1.13;1.07;;;3.50;99.90;3.60;96965.00;;;;5075402;28;20504;-68
2022/11/06 04:34:35;;;;;;;1.40;1.30;;;3.30;99.90;4.00;96973.00;;;;5088411;28;20505;-69
2022/11/06 04:37:32;;;;;;;1.52;1.38;;;3.30;99.90;4.20;96988.00;;;;5069897;28;20895;-68
2022/11/06 04:40:28;;;;;;;1.30;1.23;;;3.50;99.90;4.60;96974.00;;;;5084062;28;20230;-68
2022/11/06 04:43:25;;;;;;;1.40;1.30;;;3.60;99.90;4.80;96983.00;;;;5085994;28;20512;-69
2022/11/06 04:46:21;;;;;;;1.13;1.00;;;3.80;99.90;4.60;96984.00;;;;5087405;28;20960;-68
2022/11/06 04:49:11;;;;;;;2.53;1.27;;;3.80;99.90;4.20;96990.00;;;;5078250;28;20491;-68
2022/11/06 04:52:03;;;;;;;2.00;1.30;;;4.00;99.90;3.80;96974.00;;;;5089000;28;20475;-68
2022/11/06 04:54:53;;;;;;;0.90;0.90;;;3.80;99.90;4.20;96979.00;;;;5072190;28;20907;-68
2022/11/06 04:57:41;;;;;;;1.40;1.30;;;3.60;99.90;3.90;96986.00;;;;5084605;28;20932;-68
2022/11/06 05:00:30;;;;;;;1.30;1.20;;;3.50;99.90;3.80;96988.00;;;;5091189;28;20441;-68
2022/11/06 05:03:20;;;;;;;1.43;1.30;;;3.50;99.90;3.50;96971.00;;;;5089805;28;21043;-68
2022/11/06 05:06:09;;;;;;;0.80;0.80;;;3.40;99.90;3.60;96977.00;;;;5087009;28;20484;-69
2022/11/06 05:09:00;;;;;;;1.50;1.40;;;3.30;99.90;3.90;96982.00;;;;5079358;28;20481;-68
2022/11/06 05:11:48;;;;;;;2.30;1.30;;;3.30;99.90;4.00;96980.00;;;;5086193;28;20437;-68
2022/11/06 05:14:37;;;;;;;1.90;1.80;;;3.30;99.90;4.00;96983.00;;;;5085438;28;20848;-68
2022/11/06 05:17:26;;;;;;;2.57;1.33;;;3.40;99.90;4.10;96973.00;;;;5090724;28;20466;-69
2022/11/06 05:20:16;;;;;;;1.40;1.30;;;3.50;99.90;3.80;96975.00;;;;5089698;28;20866;-69
2022/11/06 05:23:04;;;;;;;1.13;1.00;;;3.40;99.90;3.90;96986.00;;;;5087090;28;20465;-68
2022/11/06 05:25:52;;;;;;;1.17;1.17;;;3.40;99.90;4.10;96997.00;;;;5075957;28;20453;-69
2022/11/06 05:28:41;;;;;;;2.33;1.70;;;3.40;99.90;3.60;96984.00;;;;5079222;28;20451;-67
2022/11/06 05:31:30;;;;;;;1.50;1.27;;;3.40;99.90;4.00;96991.00;;;;5082329;28;20508;-68
2022/11/06 05:34:18;;;;;;;4.40;2.03;;;3.40;99.90;4.40;96986.00;;;;5085832;28;20843;-68
2022/11/06 05:37:08;;;;;;;1.83;1.70;;;3.50;99.90;3.90;96983.00;;;;5071420;28;21235;-68
2022/11/06 05:39:57;;;;;;;1.70;1.57;;;3.50;99.90;3.90;96980.00;;;;5069274;28;20498;-68
2022/11/06 05:42:46;;;;;;;1.30;1.20;;;3.50;99.90;3.80;96985.00;;;;5086217;28;20487;-68
2022/11/06 05:45:34;;;;;;;1.50;1.40;;;3.50;99.90;3.70;96977.00;;;;5085492;28;20466;-68
2022/11/06 05:48:23;;;;;;;1.63;1.53;;;3.40;99.90;3.90;96985.00;;;;5089861;28;20475;-69
2022/11/06 05:51:12;;;;;;;1.20;1.10;;;3.50;99.90;4.00;96989.00;;;;5083138;28;20462;-68
2022/11/06 05:54:03;;;;;;;1.20;1.10;;;3.60;99.90;4.30;97001.00;;;;5077027;28;20975;-69
2022/11/06 05:56:51;;;;;;;3.03;1.70;;;3.60;99.90;4.50;96980.00;;;;5086415;28;20510;-70
2022/11/06 05:59:40;;;;;;;2.33;1.70;;;3.70;99.90;4.40;97001.00;;;;5087366;28;21003;-68
2022/11/06 06:02:29;;;;;;;1.20;1.10;;;3.80;99.90;4.10;96985.00;;;;5087768;28;20428;-68
2022/11/06 06:05:18;;;;;;;1.50;1.40;;;3.80;99.90;4.20;97008.00;;;;5089112;28;20837;-68
2022/11/06 06:08:07;;;;;;;1.30;1.20;;;3.70;99.90;4.40;97008.00;;;;5086124;28;20476;-68
2022/11/06 06:10:57;;;;;;;0.80;0.80;;;3.80;99.90;4.10;97010.00;;;;5086384;28;20470;-68
2022/11/06 06:13:47;;;;;;;1.53;1.43;;;3.80;99.90;4.40;97017.00;;;;5087983;28;21009;-69
2022/11/06 06:16:35;;;;;;;2.83;1.20;;;3.80;99.90;4.10;97013.00;;;;5084794;28;20442;-69
2022/11/06 06:19:24;;;;;;;1.33;1.20;;;3.80;99.90;4.50;97027.00;;;;5089323;28;20484;-68
2022/11/06 06:22:13;;;;;;;1.27;1.17;;;3.80;99.90;4.60;97025.00;;;;5086090;28;20955;-68
2022/11/06 06:25:02;;;;;;;2.33;1.67;;;4.00;99.90;4.50;97022.00;;;;5088770;28;20421;-68
2022/11/06 06:27:52;;;;;;;5.47;3.10;;;4.00;99.90;4.60;97010.00;;;;5081453;28;20418;-67
2022/11/06 06:30:41;;;;;;;1.83;1.73;;;4.10;99.90;4.20;97013.00;;;;5078826;28;20203;-68
2022/11/06 06:33:30;;;;;;;1.30;1.20;;;4.10;99.90;4.40;97021.00;;;;5084791;28;20914;-67
2022/11/06 06:36:18;;;;;;;1.50;1.20;;;4.00;99.90;4.30;97021.00;;;;5087110;28;20630;-68
2022/11/06 06:39:07;;;;;;;1.20;1.10;;;4.10;99.90;4.50;97021.00;;;;5080121;28;20465;-68
2022/11/06 06:41:57;;;;;;;1.27;1.27;;;4.10;99.90;4.60;97029.00;;;;5085603;28;20960;-68
2022/11/06 06:44:47;;;;;;;1.60;1.50;;;4.10;99.90;4.70;97029.00;;;;5071180;28;20422;-68
2022/11/06 06:47:36;;;;;;;2.30;2.10;;;4.20;99.90;4.40;97036.00;;;;5079050;28;20433;-68
2022/11/06 06:50:25;;;;;;;2.97;1.53;;;4.10;99.90;4.20;97028.00;;;;5089447;28;20202;-69
2022/11/06 06:53:13;;;;;;;2.63;1.67;;;3.90;99.90;4.10;97034.00;;;;5094566;28;20195;-70
2022/11/06 06:56:03;;;;;;;1.00;1.00;;;3.90;99.90;4.20;97036.00;;;;5088246;28;20292;-70
2022/11/06 06:58:54;;;;;;;1.20;1.17;;;3.90;99.90;4.60;97041.00;;;;5081127;28;20441;-70
2022/11/06 07:01:44;;;;;;;1.30;1.20;;;3.90;99.90;4.70;97051.00;;;;5087484;28;20417;-68
2022/11/06 07:04:33;;;;;;;1.43;1.33;;;4.10;99.90;4.70;97046.00;;;;5091319;28;20873;-69
2022/11/06 07:07:21;;;;;;;1.40;1.30;;;4.20;99.90;5.00;97057.00;;;;5095361;28;20428;-69
2022/11/06 07:10:10;;;;;;;0.80;0.80;;;4.30;99.90;5.20;97059.00;;;;5092106;28;20201;-69
2022/11/06 07:13:01;;;;;;;3.23;2.30;;;4.40;99.90;5.30;97053.00;;;;5091599;28;20203;-68
2022/11/06 07:15:50;;;;;;;3.17;1.17;;;4.50;99.90;5.10;97056.00;;;;5087593;28;20211;-70
2022/11/06 07:18:41;;;;;;;1.13;1.03;;;4.60;99.90;5.00;97050.00;;;;5079844;28;20203;-70
2022/11/06 07:21:29;;;;;;;2.20;1.40;;;4.60;99.90;5.40;97059.00;;;;5080088;28;20203;-68
2022/11/06 07:24:18;;;;;;;1.50;1.40;;;4.60;99.90;5.30;97052.00;;;;5085034;28;20233;-69
2022/11/06 07:27:09;;;;;;;2.07;1.70;;;4.70;99.90;5.50;97057.00;;;;5085145;28;20770;-68
2022/11/06 07:29:59;;;;;;;5.90;1.50;;;4.80;99.90;5.50;97052.00;;;;5085118;28;20229;-68
2022/11/06 07:32:47;;;;;;;1.33;1.23;;;4.80;99.90;5.50;97051.00;;;;5083162;28;20558;-68
2022/11/06 07:35:38;;;;;;;4.47;1.30;;;4.80;99.90;5.40;97048.00;;;;5077241;28;20220;-71
2022/11/06 07:38:26;;;;;;;1.23;1.13;;;4.90;99.90;5.70;97048.00;;;;5084611;28;20278;-69
2022/11/06 07:41:16;;;;;;;2.33;2.20;;;4.90;99.90;6.10;97056.00;;;;5085555;28;20372;-68
2022/11/06 07:44:05;;;;;;;1.30;1.23;;;5.10;99.90;6.30;97049.00;;;;5077160;28;20701;-68
2022/11/06 07:46:53;;;;;;;1.40;1.30;;;5.30;99.90;6.30;97053.00;;;;5088986;28;20227;-67
2022/11/06 07:49:42;;;;;;;2.33;1.70;;;5.40;99.90;6.10;97060.00;;;;5090625;28;20202;-68
2022/11/06 07:52:35;;;;;;;1.60;1.50;;;5.40;99.90;6.10;97048.00;;;;5092901;28;20309;-68
2022/11/06 07:55:24;;;;;;;2.07;1.77;;;5.40;99.90;6.30;97055.00;;;;5090228;28;20214;-69
2022/11/06 07:58:13;;;;;;;1.47;1.37;;;5.50;99.90;6.40;97060.00;;;;5088681;28;20605;-69
2022/11/06 08:01:02;;;;;;;2.23;2.03;;;5.50;99.90;6.30;97043.00;;;;5087420;28;20250;-67
2022/11/06 08:03:51;;;;;;;1.53;1.43;;;5.60;99.90;6.60;97064.00;;;;5084829;28;20210;-69
2022/11/06 08:06:39;;;;;;;1.50;1.40;;;5.70;99.90;6.70;97066.00;;;;5088951;28;20234;-69
2022/11/06 08:09:30;;;;;;;1.87;1.60;;;5.80;99.90;6.60;97060.00;;;;5085841;28;20701;-71
2022/11/06 08:12:18;;;;;;;1.50;1.40;;;5.90;99.90;7.00;97068.00;;;;5088283;28;20727;-68
2022/11/06 08:15:08;;;;;;;2.00;1.23;;;6.00;99.90;7.10;97062.00;;;;5085510;28;20231;-70
2022/11/06 08:17:59;;;;;;;1.50;1.40;;;6.20;99.90;7.30;97051.00;;;;5087908;28;20272;-72
2022/11/06 08:20:47;;;;;;;1.20;1.10;;;6.30;99.90;7.40;97046.00;;;;5078455;28;20227;-68
2022/11/06 08:23:36;;;;;;;1.30;1.20;;;6.50;99.90;7.70;97054.00;;;;5088236;28;20195;-69
2022/11/06 08:26:27;;;;;;;0.77;0.77;;;6.70;99.90;7.70;97051.00;;;;5085456;28;20247;-72
2022/11/06 08:29:16;;;;;;;2.50;1.30;;;6.80;99.90;7.90;97047.00;;;;5083536;28;20578;-68
2022/11/06 08:32:05;;;;;;;1.40;1.30;;;6.90;99.90;8.20;97048.00;;;;5090617;28;20204;-69
2022/11/06 08:34:54;;;;;;;1.50;1.40;;;7.00;99.90;8.50;97048.00;;;;5085142;28;20291;-69
2022/11/06 08:37:43;;;;;;;2.50;1.37;;;7.20;99.90;8.50;97046.00;;;;5082792;28;20471;-69
2022/11/06 08:40:32;;;;;;;1.57;1.47;;;7.30;99.90;8.90;97051.00;;;;5088149;28;20244;-70
2022/11/06 08:43:25;;;;;;;4.90;1.30;;;7.50;99.90;9.00;97053.00;;;;5088516;28;20202;-69
2022/11/06 08:46:14;;;;;;;0.87;0.83;;;7.60;99.90;9.30;97040.00;;;;5089730;28;20257;-69
2022/11/06 08:49:03;;;;;;;1.40;1.30;;;7.80;99.90;9.60;97041.00;;;;5082710;28;20203;-69
2022/11/06 08:51:52;;;;;;;3.40;1.33;;;8.10;99.90;9.70;97035.00;;;;5094025;28;20209;-69
2022/11/06 08:54:41;;;;;;;2.60;1.77;;;8.30;99.90;10.10;97034.00;;;;5094897;28;20638;-69
2022/11/06 08:57:30;;;;;;;3.50;2.20;;;8.50;99.90;10.50;97032.00;;;;5081480;28;20714;-69
2022/11/06 09:00:21;;;;;;;2.40;1.60;;;8.70;99.90;10.70;97028.00;;;;5087492;28;20310;-69
2022/11/06 09:03:14;;;;;;;1.87;1.70;;;8.90;99.90;11.00;97032.00;;;;5090178;27;20237;-69
2022/11/06 09:06:05;;;;;;;3.53;1.97;;;9.20;99.90;11.40;97031.00;;;;5084859;28;20227;-69
2022/11/06 09:08:54;;;;;;;3.77;2.10;;;9.40;99.90;11.90;97038.00;;;;5083373;28;20203;-69
2022/11/06 09:11:43;;;;;;;3.33;1.90;;;9.70;99.90;12.20;97039.00;;;;5087292;28;20203;-69
2022/11/06 09:14:33;;;;;;;2.73;1.50;;;10.00;99.90;12.40;97042.00;;;;5089167;28;20191;-69
2022/11/06 09:17:24;;;;;;;1.80;1.40;;;10.30;99.90;12.70;97033.00;;;;5086675;28;20245;-69
2022/11/06 09:20:14;;;;;;;1.50;1.40;;;10.60;99.90;13.00;97039.00;;;;5090545;28;20319;-69
2022/11/06 09:23:05;;;;;;;1.23;1.13;;;10.90;99.90;13.30;97031.00;;;;5086883;28;20199;-69
2022/11/06 09:25:54;;;;;;;1.23;1.10;;;11.20;99.90;13.60;97028.00;;;;5086147;28;20583;-69
2022/11/06 09:28:43;;;;;;;1.53;1.00;;;11.50;99.90;13.60;97028.00;;;;5081144;28;20207;-69
2022/11/06 09:31:31;;;;;;;5.57;1.33;;;11.70;99.90;14.00;97029.00;;;;5081382;28;20202;-69
2022/11/06 09:34:21;;;;;;;3.13;0.90;;;11.90;99.90;14.00;97026.00;;;;5088189;28;20293;-68
2022/11/06 09:37:10;;;;;;;1.00;0.80;;;12.10;99.90;13.50;97020.00;;;;5082466;28;20524;-68
2022/11/06 09:39:59;;;;;;;1.53;1.20;;;12.20;99.90;14.30;97025.00;;;;5084679;28;20199;-68
2022/11/06 09:43:14;;;;;;;0.97;0.87;;;12.40;99.90;14.40;97017.00;;;;5084944;28;20204;-68
2022/11/06 09:46:16;;;;;;;1.93;1.60;;;12.60;99.90;14.30;97009.00;;;;5073880;28;20668;-68
2022/11/06 09:49:15;;;;;;;2.20;0.93;;;12.70;99.90;14.30;97008.00;;;;5085512;28;20239;-68
2022/11/06 09:52:11;;;;;;;0.50;0.50;;;12.80;99.70;14.60;97006.00;;;;5077525;28;20298;-69
2022/11/06 09:55:04;;;;;;;3.00;0.90;;;12.90;99.30;14.30;97001.00;;;;5088627;28;20206;-69
2022/11/06 09:57:58;;;;;;;0.70;0.70;;;12.90;96.20;14.50;97001.00;;;;5087565;28;20202;-71
2022/11/06 10:00:48;;;;;;;0.70;0.70;;;13.10;96.10;15.10;97000.00;;;;5088506;28;20215;-68
2022/11/06 10:03:45;;;;;;;0.87;0.70;;;13.30;97.10;15.70;96999.00;;;;5083788;28;20196;-68
2022/11/06 10:06:34;;;;;;;1.37;1.03;;;13.50;96.70;15.30;96993.00;;;;5085287;28;20592;-68
2022/11/06 10:09:24;;;;;;;1.00;0.83;;;13.70;94.60;14.80;96992.00;;;;5084520;28;20210;-68
2022/11/06 10:12:22;;;;;;;3.27;1.70;;;13.80;92.40;15.80;96989.00;;;;5086001;28;20195;-67
2022/11/06 10:15:23;;;;;;;1.87;1.27;;;14.00;93.40;16.80;96986.00;;;;5084726;28;20251;-67
2022/11/06 10:18:21;;;;;;;0.80;0.70;;;14.90;93.50;17.30;96984.00;;;;5083804;28;20321;-68
2022/11/06 10:21:12;;;;;;;0.97;0.70;;;15.90;91.00;17.30;96979.00;;;;5086031;28;20713;-68
2022/11/06 10:24:12;;;;;;;0.60;0.60;;;16.60;83.20;17.80;96987.00;;;;5086654;28;20229;-68
2022/11/06 10:27:10;;;;;;;0.60;0.60;;;17.00;83.80;18.00;96977.00;;;;5083061;28;20223;-68
2022/11/06 10:30:06;;;;;;;1.47;1.23;;;17.30;78.00;18.50;96979.00;;;;5084168;28;20225;-68
2022/11/06 10:33:23;;;;;;;0.73;0.73;;;17.80;75.90;18.40;96969.00;;;;5083447;28;20218;-68
2022/11/06 10:36:17;;;;;;;0.80;0.70;;;18.30;70.00;19.00;96970.00;;;;5086910;28;20215;-68
2022/11/06 10:39:15;;;;;;;0.47;0.47;;;18.30;71.90;18.70;96966.00;;;;5083944;28;20207;-69
2022/11/06 10:42:12;;;;;;;0.80;0.60;;;18.30;69.10;19.40;96965.00;;;;5086849;28;20223;-69
2022/11/06 10:45:05;;;;;;;0.80;0.60;;;18.50;70.60;20.00;96968.00;;;;5083090;28;20195;-69
2022/11/06 10:47:59;;;;;;;1.13;0.40;;;18.80;70.40;20.00;96953.00;;;;5084080;28;20203;-69
2022/11/06 10:51:00;;;;;;;0.50;0.50;;;19.30;66.30;20.20;96950.00;;;;5087033;28;20299;-69
2022/11/06 10:54:02;;;;;;;0.73;0.73;;;19.40;64.10;20.80;96953.00;;;;5086276;28;20264;-69
2022/11/06 10:57:25;;;;;;;1.13;0.70;;;19.50;66.80;20.30;96938.00;;;;5081698;28;20755;-69
2022/11/06 11:00:16;;;;;;;0.50;0.50;;;19.60;63.50;21.20;96936.00;;;;5082966;28;20266;-69
2022/11/06 11:03:14;;;;;;;0.63;0.63;;;19.80;63.70;20.90;96932.00;;;;5085689;28;20730;-69
2022/11/06 11:06:04;;;;;;;0.53;0.33;;;20.00;62.60;21.30;96925.00;;;;5086991;28;20235;-69
2022/11/06 11:08:53;;;;;;;0.53;0.37;;;20.00;61.90;21.40;96917.00;;;;5083794;28;20226;-69
2022/11/06 11:11:49;;;;;;;1.00;0.60;;;20.10;60.00;21.30;96921.00;;;;5082163;28;20330;-69
2022/11/06 11:14:38;;;;;;;0.70;0.43;;;20.20;59.80;21.50;96919.00;;;;5086347;28;20630;-69
2022/11/06 11:17:28;;;;;;;0.40;0.40;;;20.30;57.80;21.40;96922.00;;;;5085309;28;20264;-69
2022/11/06 11:20:31;;;;;;;0.30;0.30;;;20.40;56.90;21.70;96918.00;;;;5089217;28;20670;-69
2022/11/06 11:23:23;;;;;;;1.10;0.70;;;20.40;56.50;21.60;96917.00;;;;5082116;28;20203;-68
2022/11/06 11:26:24;;;;;;;1.40;0.80;;;20.30;57.00;22.50;96907.00;;;;5084785;28;20211;-68
2022/11/06 11:29:16;;;;;;;1.10;1.00;;;20.50;58.60;22.40;96905.00;;;;5071629;28;20558;-68
2022/11/06 11:32:07;;;;;;;1.43;1.03;;;20.80;57.20;22.80;96915.00;;;;5089274;28;20204;-68
2022/11/06 11:34:58;;;;;;;2.07;1.20;;;21.00;56.90;23.20;96917.00;;;;5088743;28;20707;-68
2022/11/06 11:37:47;;;;;;;1.57;1.00;;;21.30;56.50;22.60;96906.00;;;;5079980;28;20333;-68
2022/11/06 11:40:38;;;;;;;1.57;0.80;;;21.40;53.60;22.20;96913.00;;;;5088916;28;20249;-68
2022/11/06 11:43:28;;;;;;;2.23;0.60;;;21.20;54.40;20.10;96907.00;;;;5090009;28;20285;-68
2022/11/06 11:46:20;;;;;;;0.50;0.50;;;20.80;53.00;21.20;96902.00;;;;5096343;28;20261;-68
2022/11/06 11:49:27;;;;;;;0.90;0.40;;;20.50;53.40;19.70;96899.00;;;;5085923;28;20251;-68
2022/11/06 11:52:21;;;;;;;1.70;0.70;;;20.10;55.20;19.30;96894.00;;;;5087012;28;20242;-70
2022/11/06 11:55:16;;;;;;;2.20;0.77;;;19.60;54.70;19.90;96891.00;;;;5080591;28;21293;-69
2022/11/06 11:58:18;;;;;;;0.57;0.50;;;19.40;53.90;20.60;96892.00;;;;5081989;28;20241;-69
2022/11/06 12:01:08;;;;;;;1.07;0.47;;;19.60;53.80;21.30;96900.00;;;;5089548;28;20262;-68
2022/11/06 12:03:57;;;;;;;0.77;0.60;;;19.90;54.00;21.50;96902.00;;;;5086718;28;20678;-69
2022/11/06 12:07:00;;;;;;;1.57;0.50;;;20.20;55.20;22.60;96894.00;;;;5088926;28;20255;-69
2022/11/06 12:09:51;;;;;;;0.60;0.37;;;20.70;52.90;21.50;96897.00;;;;5096992;28;20192;-68
2022/11/06 12:12:39;;;;;;;0.90;0.63;;;20.90;51.40;23.30;96899.00;;;;5093275;28;20740;-69
2022/11/06 12:15:34;;;;;;;0.30;0.30;;;21.20;53.30;23.70;96891.00;;;;5093925;28;20227;-69
2022/11/06 12:18:27;;;;;;;0.60;0.60;;;21.60;53.10;23.20;96876.00;;;;5090819;28;20196;-69
2022/11/06 12:21:25;;;;;;;1.20;0.80;;;21.90;51.80;21.20;96870.00;;;;5085879;28;20249;-69
2022/11/06 12:24:19;;;;;;;0.93;0.50;;;21.50;50.90;20.30;96858.00;;;;5089016;28;20266;-69
2022/11/06 12:27:15;;;;;;;0.90;0.60;;;20.60;51.80;21.30;96859.00;;;;5086559;28;20232;-68
2022/11/06 12:30:10;;;;;;;0.50;0.50;;;20.30;53.50;21.20;96854.00;;;;5086527;28;20278;-69
2022/11/06 12:33:09;;;;;;;0.50;0.50;;;20.60;52.00;23.20;96858.00;;;;5088877;28;20194;-69
2022/11/06 12:36:05;;;;;;;2.63;0.70;;;21.00;53.30;23.90;96853.00;;;;5087148;28;20715;-69
2022/11/06 12:38:59;;;;;;;1.70;1.17;;;21.70;52.00;25.20;96853.00;;;;5087458;28;20202;-69
2022/11/06 12:41:50;;;;;;;0.80;0.80;;;22.50;52.80;23.30;96851.00;;;;5087077;28;20695;-69
2022/11/06 12:44:40;;;;;;;1.53;1.17;;;23.00;51.50;25.20;96859.00;;;;5092530;28;20235;-68
2022/11/06 12:47:45;;;;;;;1.30;1.20;;;23.10;52.60;25.50;96854.00;;;;5094895;28;20230;-69
2022/11/06 12:50:41;;;;;;;1.30;1.20;;;23.50;53.20;23.70;96847.00;;;;5084455;28;20196;-69
2022/11/06 12:53:44;;;;;;;2.00;1.30;;;23.30;53.40;24.10;96848.00;;;;5089191;28;20206;-69
2022/11/06 12:56:43;;;;;;;1.70;1.50;;;23.00;54.10;25.20;96855.00;;;;5088852;28;20260;-69
2022/11/06 12:59:46;;;;;;;3.50;3.20;;;23.30;53.20;25.40;96857.00;;;;5086810;28;20882;-69
2022/11/06 13:03:02;;;;;;;0.63;0.63;;;23.70;52.80;24.30;96850.00;;;;5089222;28;20219;-69
2022/11/06 13:05:59;;;;;;;0.93;0.80;;;23.60;50.50;21.30;96857.00;;;;5084915;28;20238;-69
2022/11/06 13:08:57;;;;;;;0.70;0.70;;;22.80;51.50;21.90;96855.00;;;;5081261;28;20573;-69
2022/11/06 13:12:05;;;;;;;1.47;1.30;;;22.40;52.20;20.20;96838.00;;;;5086134;28;20224;-70